sensor_id;sensor_type;location;lat;lon;timestamp;pressure;altitude;pressure_sealevel;temperature;humidity
49315;BME280;36672;50.710;12.498;2022-07-18T00:02:03;99421.25;;;14.09;53.03
49315;BME280;36672;50.710;12.498;2022-07-18T00:04:28;99407.00;;;14.07;53.39
49315;BME280;36672;50.710;12.498;2022-07-18T00:06:54;99401.78;;;14.05;53.17
49315;BME280;36672;50.710;12.498;2022-07-18T00:09:19;99397.97;;;13.99;53.19
49315;BME280;36672;50.710;12.498;2022-07-18T00:11:47;99395.88;;;13.95;53.57
49315;BME280;36672;50.710;12.498;2022-07-18T00:14:12;99390.00;;;13.91;53.53
49315;BME280;36672;50.710;12.498;2022-07-18T00:16:38;99383.09;;;13.89;53.82
49315;BME280;36672;50.710;12.498;2022-07-18T00:19:04;99389.78;;;13.86;54.02
49315;BME280;36672;50.710;12.498;2022-07-18T00:21:29;99384.72;;;13.83;53.87
49315;BME280;36672;50.710;12.498;2022-07-18T00:23:54;99387.84;;;13.80;53.86
49315;BME280;36672;50.710;12.498;2022-07-18T00:26:19;99394.09;;;13.80;53.89
49315;BME280;36672;50.710;12.498;2022-07-18T00:28:45;99392.63;;;13.78;53.67
49315;BME280;36672;50.710;12.498;2022-07-18T00:31:10;99393.88;;;13.75;54.11
49315;BME280;36672;50.710;12.498;2022-07-18T00:33:36;99385.72;;;13.75;54.14
49315;BME280;36672;50.710;12.498;2022-07-18T00:36:01;99397.00;;;13.72;54.18
49315;BME280;36672;50.710;12.498;2022-07-18T00:38:26;99390.09;;;13.69;54.11
49315;BME280;36672;50.710;12.498;2022-07-18T00:40:51;99400.28;;;13.67;54.54
49315;BME280;36672;50.710;12.498;2022-07-18T00:43:17;99401.72;;;13.63;54.08
49315;BME280;36672;50.710;12.498;2022-07-18T00:45:45;99397.28;;;13.56;54.54
49315;BME280;36672;50.710;12.498;2022-07-18T00:48:11;99393.09;;;13.53;54.79
49315;BME280;36672;50.710;12.498;2022-07-18T00:50:36;99398.91;;;13.50;54.63
49315;BME280;36672;50.710;12.498;2022-07-18T00:53:02;99402.66;;;13.49;54.90
49315;BME280;36672;50.710;12.498;2022-07-18T00:55:27;99406.59;;;13.46;54.93
49315;BME280;36672;50.710;12.498;2022-07-18T00:57:52;99407.22;;;13.42;54.86
49315;BME280;36672;50.710;12.498;2022-07-18T01:00:18;99410.31;;;13.38;55.54
49315;BME280;36672;50.710;12.498;2022-07-18T01:03:02;99397.09;;;13.35;55.60
49315;BME280;36672;50.710;12.498;2022-07-18T01:05:28;99398.34;;;13.33;55.41
49315;BME280;36672;50.710;12.498;2022-07-18T01:07:53;99399.38;;;13.32;55.65
49315;BME280;36672;50.710;12.498;2022-07-18T01:10:18;99399.78;;;13.29;55.55
49315;BME280;36672;50.710;12.498;2022-07-18T01:12:44;99394.28;;;13.22;56.04
49315;BME280;36672;50.710;12.498;2022-07-18T01:15:10;99393.41;;;13.15;56.13
49315;BME280;36672;50.710;12.498;2022-07-18T01:17:35;99391.00;;;13.05;57.19
49315;BME280;36672;50.710;12.498;2022-07-18T01:20:00;99390.75;;;13.00;56.67
49315;BME280;36672;50.710;12.498;2022-07-18T01:22:26;99398.78;;;12.93;56.78
49315;BME280;36672;50.710;12.498;2022-07-18T01:24:51;99401.91;;;12.90;57.53
49315;BME280;36672;50.710;12.498;2022-07-18T01:27:17;99402.47;;;12.85;57.38
49315;BME280;36672;50.710;12.498;2022-07-18T01:29:43;99412.88;;;12.82;57.69
49315;BME280;36672;50.710;12.498;2022-07-18T01:32:09;99407.19;;;12.77;58.01
49315;BME280;36672;50.710;12.498;2022-07-18T01:34:35;99412.59;;;12.77;57.46
49315;BME280;36672;50.710;12.498;2022-07-18T01:37:00;99415.50;;;12.75;58.19
49315;BME280;36672;50.710;12.498;2022-07-18T01:39:26;99416.75;;;12.72;57.44
49315;BME280;36672;50.710;12.498;2022-07-18T01:41:55;99420.69;;;12.70;57.79
49315;BME280;36672;50.710;12.498;2022-07-18T01:44:21;99415.66;;;12.67;58.11
49315;BME280;36672;50.710;12.498;2022-07-18T01:46:46;99423.78;;;12.67;57.76
49315;BME280;36672;50.710;12.498;2022-07-18T01:49:11;99424.16;;;12.64;58.15
49315;BME280;36672;50.710;12.498;2022-07-18T01:51:36;99422.03;;;12.59;58.33
49315;BME280;36672;50.710;12.498;2022-07-18T01:54:02;99428.84;;;12.55;58.50
49315;BME280;36672;50.710;12.498;2022-07-18T01:56:27;99429.22;;;12.52;58.41
49315;BME280;36672;50.710;12.498;2022-07-18T01:58:52;99430.81;;;12.46;58.37
49315;BME280;36672;50.710;12.498;2022-07-18T02:01:17;99430.38;;;12.43;58.36
49315;BME280;36672;50.710;12.498;2022-07-18T02:03:42;99414.47;;;12.39;59.09
49315;BME280;36672;50.710;12.498;2022-07-18T02:06:08;99418.41;;;12.37;58.90
49315;BME280;36672;50.710;12.498;2022-07-18T02:08:33;99403.78;;;12.31;59.45
49315;BME280;36672;50.710;12.498;2022-07-18T02:10:58;99414.13;;;12.28;59.52
49315;BME280;36672;50.710;12.498;2022-07-18T02:13:23;99407.41;;;12.23;59.73
49315;BME280;36672;50.710;12.498;2022-07-18T02:15:49;99400.47;;;12.21;59.86
49315;BME280;36672;50.710;12.498;2022-07-18T02:18:14;99394.44;;;12.19;59.89
49315;BME280;36672;50.710;12.498;2022-07-18T02:20:39;99403.13;;;12.14;60.50
49315;BME280;36672;50.710;12.498;2022-07-18T02:23:05;99401.81;;;12.10;60.10
49315;BME280;36672;50.710;12.498;2022-07-18T02:25:30;99395.09;;;12.06;60.46
49315;BME280;36672;50.710;12.498;2022-07-18T02:27:55;99402.28;;;11.99;60.38
49315;BME280;36672;50.710;12.498;2022-07-18T02:30:20;99394.53;;;11.96;60.15
49315;BME280;36672;50.710;12.498;2022-07-18T02:32:46;99396.22;;;11.97;60.40
49315;BME280;36672;50.710;12.498;2022-07-18T02:35:12;99409.25;;;11.93;60.14
49315;BME280;36672;50.710;12.498;2022-07-18T02:37:37;99401.72;;;11.88;59.98
49315;BME280;36672;50.710;12.498;2022-07-18T02:40:04;99403.28;;;11.83;60.25
49315;BME280;36672;50.710;12.498;2022-07-18T02:42:30;99401.97;;;11.79;60.57
49315;BME280;36672;50.710;12.498;2022-07-18T02:44:55;99389.09;;;11.66;60.57
49315;BME280;36672;50.710;12.498;2022-07-18T02:47:20;99408.13;;;11.72;60.67
49315;BME280;36672;50.710;12.498;2022-07-18T02:49:45;99406.28;;;11.73;60.67
49315;BME280;36672;50.710;12.498;2022-07-18T02:52:11;99408.13;;;11.72;61.13
49315;BME280;36672;50.710;12.498;2022-07-18T02:54:37;99409.34;;;11.70;60.07
49315;BME280;36672;50.710;12.498;2022-07-18T02:57:02;99404.31;;;11.67;60.82
49315;BME280;36672;50.710;12.498;2022-07-18T02:59:28;99400.56;;;11.68;60.99
49315;BME280;36672;50.710;12.498;2022-07-18T03:01:54;99402.25;;;11.69;60.73
49315;BME280;36672;50.710;12.498;2022-07-18T03:04:19;99393.09;;;11.70;61.10
49315;BME280;36672;50.710;12.498;2022-07-18T03:06:45;99389.72;;;11.68;60.39
49315;BME280;36672;50.710;12.498;2022-07-18T03:09:10;99389.72;;;11.68;60.94
49315;BME280;36672;50.710;12.498;2022-07-18T03:11:36;99387.22;;;11.66;60.32
49315;BME280;36672;50.710;12.498;2022-07-18T03:14:01;99393.66;;;11.65;60.73
49315;BME280;36672;50.710;12.498;2022-07-18T03:16:27;99388.06;;;11.67;60.48
49315;BME280;36672;50.710;12.498;2022-07-18T03:18:52;99389.09;;;11.66;60.49
49315;BME280;36672;50.710;12.498;2022-07-18T03:21:17;99389.09;;;11.66;60.74
49315;BME280;36672;50.710;12.498;2022-07-18T03:23:43;99394.22;;;11.61;60.34
49315;BME280;36672;50.710;12.498;2022-07-18T03:26:08;99398.31;;;11.56;60.71
49315;BME280;36672;50.710;12.498;2022-07-18T03:28:33;99395.78;;;11.55;60.17
49315;BME280;36672;50.710;12.498;2022-07-18T03:30:58;99408.28;;;11.56;60.34
49315;BME280;36672;50.710;12.498;2022-07-18T03:33:24;99399.97;;;11.57;60.35
49315;BME280;36672;50.710;12.498;2022-07-18T03:35:49;99400.47;;;11.61;60.45
49315;BME280;36672;50.710;12.498;2022-07-18T03:38:15;99396.94;;;11.61;60.58
49315;BME280;36672;50.710;12.498;2022-07-18T03:40:40;99392.34;;;11.61;59.64
49315;BME280;36672;50.710;12.498;2022-07-18T03:43:05;99399.25;;;11.64;60.31
49315;BME280;36672;50.710;12.498;2022-07-18T03:45:30;99389.91;;;11.66;59.90
49315;BME280;36672;50.710;12.498;2022-07-18T03:47:56;99392.63;;;11.66;60.03
49315;BME280;36672;50.710;12.498;2022-07-18T03:50:21;99390.94;;;11.65;60.45
49315;BME280;36672;50.710;12.498;2022-07-18T03:52:46;99388.22;;;11.65;60.42
49315;BME280;36672;50.710;12.498;2022-07-18T03:55:11;99386.84;;;11.69;60.18
49315;BME280;36672;50.710;12.498;2022-07-18T03:57:37;99398.16;;;11.73;59.29
49315;BME280;36672;50.710;12.498;2022-07-18T04:00:03;99402.63;;;11.81;59.71
49315;BME280;36672;50.710;12.498;2022-07-18T04:02:28;99408.97;;;11.88;58.94
49315;BME280;36672;50.710;12.498;2022-07-18T04:04:53;99405.53;;;11.94;58.75
49315;BME280;36672;50.710;12.498;2022-07-18T04:07:19;99401.44;;;11.98;58.86
49315;BME280;36672;50.710;12.498;2022-07-18T04:09:44;99401.53;;;12.05;58.67
49315;BME280;36672;50.710;12.498;2022-07-18T04:12:10;99399.59;;;12.14;59.31
49315;BME280;36672;50.710;12.498;2022-07-18T04:14:35;99399.66;;;12.20;59.00
49315;BME280;36672;50.710;12.498;2022-07-18T04:17:00;99397.22;;;12.26;58.79
49315;BME280;36672;50.710;12.498;2022-07-18T04:19:25;99397.50;;;12.31;58.19
49315;BME280;36672;50.710;12.498;2022-07-18T04:21:50;99401.97;;;12.38;58.17
49315;BME280;36672;50.710;12.498;2022-07-18T04:24:16;99405.53;;;12.39;57.51
49315;BME280;36672;50.710;12.498;2022-07-18T04:26:41;99406.75;;;12.36;57.77
49315;BME280;36672;50.710;12.498;2022-07-18T04:29:06;99404.78;;;12.45;58.24
49315;BME280;36672;50.710;12.498;2022-07-18T04:31:31;99403.72;;;12.46;57.46
49315;BME280;36672;50.710;12.498;2022-07-18T04:33:57;99410.25;;;12.52;58.11
49315;BME280;36672;50.710;12.498;2022-07-18T04:36:22;99410.53;;;12.57;57.62
49315;BME280;36672;50.710;12.498;2022-07-18T04:38:47;99408.91;;;12.63;58.09
49315;BME280;36672;50.710;12.498;2022-07-18T04:41:13;99396.28;;;12.70;57.46
49315;BME280;36672;50.710;12.498;2022-07-18T04:43:38;99388.84;;;12.79;57.29
49315;BME280;36672;50.710;12.498;2022-07-18T04:46:03;99387.88;;;12.86;57.05
49315;BME280;36672;50.710;12.498;2022-07-18T04:48:28;99389.88;;;12.99;56.33
49315;BME280;36672;50.710;12.498;2022-07-18T04:50:54;99400.31;;;13.17;56.35
49315;BME280;36672;50.710;12.498;2022-07-18T04:53:19;99385.81;;;13.32;55.47
49315;BME280;36672;50.710;12.498;2022-07-18T04:55:44;99398.66;;;13.45;54.83
49315;BME280;36672;50.710;12.498;2022-07-18T04:58:10;99393.09;;;13.53;54.52
49315;BME280;36672;50.710;12.498;2022-07-18T05:00:35;99388.53;;;13.60;54.35
49315;BME280;36672;50.710;12.498;2022-07-18T05:03:00;99395.69;;;13.68;54.41
49315;BME280;36672;50.710;12.498;2022-07-18T05:05:26;99393.88;;;13.75;53.91
49315;BME280;36672;50.710;12.498;2022-07-18T05:07:52;99394.09;;;13.80;53.80
49315;BME280;36672;50.710;12.498;2022-07-18T05:10:18;99396.88;;;13.87;53.95
49315;BME280;36672;50.710;12.498;2022-07-18T05:12:44;99397.53;;;13.96;53.76
49315;BME280;36672;50.710;12.498;2022-07-18T05:15:10;99401.13;;;14.03;53.65
49315;BME280;36672;50.710;12.498;2022-07-18T05:17:37;99394.69;;;14.11;53.49
49315;BME280;36672;50.710;12.498;2022-07-18T05:20:03;99393.28;;;14.22;53.27
49315;BME280;36672;50.710;12.498;2022-07-18T05:22:28;99398.53;;;14.30;53.04
49315;BME280;36672;50.710;12.498;2022-07-18T05:24:54;99398.41;;;14.45;53.01
49315;BME280;36672;50.710;12.498;2022-07-18T05:27:19;99399.72;;;14.62;53.06
49315;BME280;36672;50.710;12.498;2022-07-18T05:29:44;99390.38;;;14.78;52.29
49315;BME280;36672;50.710;12.498;2022-07-18T05:32:09;99396.88;;;14.91;51.98
49315;BME280;36672;50.710;12.498;2022-07-18T05:34:36;99395.66;;;15.00;51.67
49315;BME280;36672;50.710;12.498;2022-07-18T05:37:01;99392.94;;;15.13;51.68
49315;BME280;36672;50.710;12.498;2022-07-18T05:39:26;99388.34;;;15.27;51.34
49315;BME280;36672;50.710;12.498;2022-07-18T05:41:52;99381.63;;;15.43;51.56
49315;BME280;36672;50.710;12.498;2022-07-18T05:44:17;99387.91;;;15.77;50.81
49315;BME280;36672;50.710;12.498;2022-07-18T05:46:45;99384.50;;;16.54;49.24
49315;BME280;36672;50.710;12.498;2022-07-18T05:49:10;99387.06;;;17.45;47.50
49315;BME280;36672;50.710;12.498;2022-07-18T05:51:35;99379.66;;;18.33;45.67
49315;BME280;36672;50.710;12.498;2022-07-18T05:54:00;99372.88;;;19.39;42.38
49315;BME280;36672;50.710;12.498;2022-07-18T05:56:26;99372.09;;;20.39;40.76
49315;BME280;36672;50.710;12.498;2022-07-18T05:58:51;99371.06;;;21.31;39.43
49315;BME280;36672;50.710;12.498;2022-07-18T06:01:16;99366.47;;;22.10;37.00
49315;BME280;36672;50.710;12.498;2022-07-18T06:03:45;99364.41;;;22.89;34.99
49315;BME280;36672;50.710;12.498;2022-07-18T06:06:10;99358.94;;;23.59;34.30
49315;BME280;36672;50.710;12.498;2022-07-18T06:08:36;99354.94;;;24.36;33.64
49315;BME280;36672;50.710;12.498;2022-07-18T06:11:01;99354.06;;;25.40;32.72
49315;BME280;36672;50.710;12.498;2022-07-18T06:13:29;99354.34;;;26.45;31.13
49315;BME280;36672;50.710;12.498;2022-07-18T06:15:54;99352.06;;;27.42;30.91
49315;BME280;36672;50.710;12.498;2022-07-18T06:18:19;99353.38;;;28.52;29.47
49315;BME280;36672;50.710;12.498;2022-07-18T06:20:44;99361.06;;;29.18;28.80
49315;BME280;36672;50.710;12.498;2022-07-18T06:23:10;99359.31;;;30.02;28.51
49315;BME280;36672;50.710;12.498;2022-07-18T06:25:35;99355.91;;;30.47;27.54
49315;BME280;36672;50.710;12.498;2022-07-18T06:28:00;99356.81;;;31.29;26.00
49315;BME280;36672;50.710;12.498;2022-07-18T06:30:25;99366.59;;;32.44;26.44
49315;BME280;36672;50.710;12.498;2022-07-18T06:32:50;99358.91;;;33.55;24.19
49315;BME280;36672;50.710;12.498;2022-07-18T06:35:16;99360.16;;;34.22;23.47
49315;BME280;36672;50.710;12.498;2022-07-18T06:37:41;99357.75;;;34.93;23.31
49315;BME280;36672;50.710;12.498;2022-07-18T06:40:07;99353.00;;;35.60;23.25
49315;BME280;36672;50.710;12.498;2022-07-18T06:42:32;99351.22;;;36.14;22.28
49315;BME280;36672;50.710;12.498;2022-07-18T06:44:58;99345.06;;;36.74;21.41
49315;BME280;36672;50.710;12.498;2022-07-18T06:47:23;99352.22;;;37.69;21.02
49315;BME280;36672;50.710;12.498;2022-07-18T06:49:48;99347.78;;;38.16;20.88
49315;BME280;36672;50.710;12.498;2022-07-18T06:52:13;99351.72;;;38.47;19.68
49315;BME280;36672;50.710;12.498;2022-07-18T06:54:40;99346.38;;;38.77;19.64
49315;BME280;36672;50.710;12.498;2022-07-18T06:57:06;99351.97;;;39.13;19.41
49315;BME280;36672;50.710;12.498;2022-07-18T06:59:33;99352.88;;;39.60;18.85
49315;BME280;36672;50.710;12.498;2022-07-18T07:01:58;99346.63;;;40.17;18.09
49315;BME280;36672;50.710;12.498;2022-07-18T07:04:23;99345.63;;;40.86;18.34
49315;BME280;36672;50.710;12.498;2022-07-18T07:06:49;99346.53;;;41.65;17.38
49315;BME280;36672;50.710;12.498;2022-07-18T07:09:14;99355.34;;;41.94;16.93
49315;BME280;36672;50.710;12.498;2022-07-18T07:11:39;99342.34;;;41.93;16.73
49315;BME280;36672;50.710;12.498;2022-07-18T07:14:04;99348.59;;;42.13;16.64
49315;BME280;36672;50.710;12.498;2022-07-18T07:16:30;99347.66;;;42.47;15.98
49315;BME280;36672;50.710;12.498;2022-07-18T07:18:55;99347.81;;;42.79;15.04
49315;BME280;36672;50.710;12.498;2022-07-18T07:21:20;99350.31;;;42.84;15.01
49315;BME280;36672;50.710;12.498;2022-07-18T07:23:45;99350.50;;;43.28;14.16
49315;BME280;36672;50.710;12.498;2022-07-18T07:26:11;99351.28;;;43.17;15.22
49315;BME280;36672;50.710;12.498;2022-07-18T07:28:36;99348.16;;;43.73;14.64
49315;BME280;36672;50.710;12.498;2022-07-18T07:31:01;99334.34;;;44.37;14.08
49315;BME280;36672;50.710;12.498;2022-07-18T07:33:26;99338.63;;;44.92;14.06
49315;BME280;36672;50.710;12.498;2022-07-18T07:35:52;99336.56;;;45.74;13.76
49315;BME280;36672;50.710;12.498;2022-07-18T07:38:17;99328.03;;;46.19;13.38
49315;BME280;36672;50.710;12.498;2022-07-18T07:40:47;99328.09;;;46.12;12.70
49315;BME280;36672;50.710;12.498;2022-07-18T07:43:13;99331.88;;;46.02;12.90
49315;BME280;36672;50.710;12.498;2022-07-18T07:45:39;99339.38;;;46.27;13.21
49315;BME280;36672;50.710;12.498;2022-07-18T07:48:05;99335.34;;;46.62;13.10
49315;BME280;36672;50.710;12.498;2022-07-18T07:50:30;99342.19;;;47.07;13.37
49315;BME280;36672;50.710;12.498;2022-07-18T07:52:56;99335.38;;;46.59;12.55
49315;BME280;36672;50.710;12.498;2022-07-18T07:55:22;99332.56;;;45.64;13.28
49315;BME280;36672;50.710;12.498;2022-07-18T07:57:47;99333.94;;;44.17;13.47
49315;BME280;36672;50.710;12.498;2022-07-18T08:00:13;99333.81;;;43.30;14.22
49315;BME280;36672;50.710;12.498;2022-07-18T08:02:49;99329.06;;;43.99;13.93
49315;BME280;36672;50.710;12.498;2022-07-18T08:05:15;99322.47;;;44.60;13.58
49315;BME280;36672;50.710;12.498;2022-07-18T08:07:40;99322.56;;;43.98;13.33
49315;BME280;36672;50.710;12.498;2022-07-18T08:10:05;99321.69;;;42.52;13.96
49315;BME280;36672;50.710;12.498;2022-07-18T08:12:31;99309.72;;;40.97;14.83
49315;BME280;36672;50.710;12.498;2022-07-18T08:14:56;99315.19;;;39.52;15.53
49315;BME280;36672;50.710;12.498;2022-07-18T08:17:21;99309.06;;;38.32;16.30
49315;BME280;36672;50.710;12.498;2022-07-18T08:19:47;99310.53;;;37.62;17.39
49315;BME280;36672;50.710;12.498;2022-07-18T08:22:12;99311.59;;;37.42;15.95
49315;BME280;36672;50.710;12.498;2022-07-18T08:24:37;99298.13;;;36.37;16.05
49315;BME280;36672;50.710;12.498;2022-07-18T08:27:02;99305.06;;;35.11;17.58
49315;BME280;36672;50.710;12.498;2022-07-18T08:29:27;99301.44;;;33.87;18.30
49315;BME280;36672;50.710;12.498;2022-07-18T08:31:53;99300.50;;;32.92;19.51
49315;BME280;36672;50.710;12.498;2022-07-18T08:34:18;99302.28;;;32.61;19.63
49315;BME280;36672;50.710;12.498;2022-07-18T08:36:43;99305.38;;;32.33;19.90
49315;BME280;36672;50.710;12.498;2022-07-18T08:39:09;99296.69;;;31.95;20.50
49315;BME280;36672;50.710;12.498;2022-07-18T08:41:34;99298.47;;;31.50;20.82
49315;BME280;36672;50.710;12.498;2022-07-18T08:44:01;99294.34;;;31.16;21.28
49315;BME280;36672;50.710;12.498;2022-07-18T08:46:26;99289.09;;;31.01;21.21
49315;BME280;36672;50.710;12.498;2022-07-18T08:48:52;99291.41;;;30.99;21.19
49315;BME280;36672;50.710;12.498;2022-07-18T08:51:20;99291.78;;;31.06;21.05
49315;BME280;36672;50.710;12.498;2022-07-18T08:53:47;99294.25;;;30.85;21.03
49315;BME280;36672;50.710;12.498;2022-07-18T08:56:13;99289.47;;;30.63;21.44
49315;BME280;36672;50.710;12.498;2022-07-18T08:58:38;99290.72;;;30.56;21.54
49315;BME280;36672;50.710;12.498;2022-07-18T09:01:04;99284.88;;;30.44;21.58
49315;BME280;36672;50.710;12.498;2022-07-18T09:03:29;99281.59;;;30.28;21.66
49315;BME280;36672;50.710;12.498;2022-07-18T09:06:05;99281.59;;;30.14;21.79
49315;BME280;36672;50.710;12.498;2022-07-18T09:08:31;99279.25;;;30.07;21.95
49315;BME280;36672;50.710;12.498;2022-07-18T09:10:57;99282.03;;;29.93;21.94
49315;BME280;36672;50.710;12.498;2022-07-18T09:13:23;99279.13;;;29.85;21.54
49315;BME280;36672;50.710;12.498;2022-07-18T09:16:02;99270.34;;;29.77;21.74
49315;BME280;36672;50.710;12.498;2022-07-18T09:18:29;99277.69;;;29.73;21.41
49315;BME280;36672;50.710;12.498;2022-07-18T09:20:58;99273.84;;;29.69;21.07
49315;BME280;36672;50.710;12.498;2022-07-18T09:23:27;99281.16;;;29.65;21.42
49315;BME280;36672;50.710;12.498;2022-07-18T09:25:53;99271.78;;;29.61;21.21
49315;BME280;36672;50.710;12.498;2022-07-18T09:28:18;99275.50;;;29.70;21.37
49315;BME280;36672;50.710;12.498;2022-07-18T09:30:43;99270.13;;;29.88;21.04
49315;BME280;36672;50.710;12.498;2022-07-18T09:33:09;99273.16;;;29.91;20.89
49315;BME280;36672;50.710;12.498;2022-07-18T09:38:07;99287.69;;;29.74;21.10
49315;BME280;36672;50.710;12.498;2022-07-18T09:43:03;99286.75;;;29.65;20.93
49315;BME280;36672;50.710;12.498;2022-07-18T09:45:30;99282.31;;;29.64;20.67
49315;BME280;36672;50.710;12.498;2022-07-18T09:47:59;99277.38;;;30.03;20.79
49315;BME280;36672;50.710;12.498;2022-07-18T09:51:07;99280.00;;;30.36;20.54
49315;BME280;36672;50.710;12.498;2022-07-18T09:53:15;99275.44;;;30.40;21.29
49315;BME280;36672;50.710;12.498;2022-07-18T09:55:41;99277.53;;;30.34;20.71
49315;BME280;36672;50.710;12.498;2022-07-18T09:58:07;99273.03;;;30.10;20.95
49315;BME280;36672;50.710;12.498;2022-07-18T10:00:37;99276.34;;;30.13;21.37
49315;BME280;36672;50.710;12.498;2022-07-18T10:03:04;99267.91;;;30.04;20.98
49315;BME280;36672;50.710;12.498;2022-07-18T10:05:31;99274.50;;;29.94;21.07
49315;BME280;36672;50.710;12.498;2022-07-18T10:07:57;99272.00;;;29.78;21.23
49315;BME280;36672;50.710;12.498;2022-07-18T10:10:22;99280.56;;;29.82;21.86
49315;BME280;36672;50.710;12.498;2022-07-18T10:12:50;99277.59;;;29.92;21.44
49315;BME280;36672;50.710;12.498;2022-07-18T10:15:17;99270.88;;;30.07;21.11
49315;BME280;36672;50.710;12.498;2022-07-18T10:17:42;99278.72;;;30.19;21.02
49315;BME280;36672;50.710;12.498;2022-07-18T10:20:08;99264.66;;;30.24;21.31
49315;BME280;36672;50.710;12.498;2022-07-18T10:22:35;99266.97;;;30.45;21.38
49315;BME280;36672;50.710;12.498;2022-07-18T10:25:04;99265.63;;;30.42;21.15
49315;BME280;36672;50.710;12.498;2022-07-18T10:27:46;99264.53;;;30.30;21.23
49315;BME280;36672;50.710;12.498;2022-07-18T10:30:12;99262.69;;;30.25;21.12
49315;BME280;36672;50.710;12.498;2022-07-18T10:32:37;99266.25;;;30.03;21.19
49315;BME280;36672;50.710;12.498;2022-07-18T10:35:04;99259.94;;;29.97;21.35
49315;BME280;36672;50.710;12.498;2022-07-18T10:37:31;99264.25;;;30.03;21.52
49315;BME280;36672;50.710;12.498;2022-07-18T10:40:20;99266.94;;;30.08;21.09
49315;BME280;36672;50.710;12.498;2022-07-18T10:42:44;99254.88;;;30.13;21.19
49315;BME280;36672;50.710;12.498;2022-07-18T10:45:42;99262.31;;;30.18;21.69
49315;BME280;36672;50.710;12.498;2022-07-18T10:56:13;99254.25;;;30.16;21.95
49315;BME280;36672;50.710;12.498;2022-07-18T10:58:38;99247.72;;;30.21;21.71
49315;BME280;36672;50.710;12.498;2022-07-18T11:01:05;99247.38;;;30.36;22.19
49315;BME280;36672;50.710;12.498;2022-07-18T11:03:31;99239.00;;;30.36;21.37
49315;BME280;36672;50.710;12.498;2022-07-18T11:05:56;99252.13;;;30.50;21.74
49315;BME280;36672;50.710;12.498;2022-07-18T11:08:22;99245.69;;;30.63;21.45
49315;BME280;36672;50.710;12.498;2022-07-18T11:16:14;99241.50;;;30.52;21.84
49315;BME280;36672;50.710;12.498;2022-07-18T11:21:38;99230.84;;;30.40;22.18
49315;BME280;36672;50.710;12.498;2022-07-18T11:24:01;99241.22;;;30.25;21.86
49315;BME280;36672;50.710;12.498;2022-07-18T11:26:26;99234.31;;;30.23;21.87
49315;BME280;36672;50.710;12.498;2022-07-18T11:28:59;99234.88;;;30.34;21.89
49315;BME280;36672;50.710;12.498;2022-07-18T11:31:25;99232.47;;;30.55;21.62
49315;BME280;36672;50.710;12.498;2022-07-18T11:33:50;99226.84;;;30.69;22.08
49315;BME280;36672;50.710;12.498;2022-07-18T11:36:17;99225.69;;;30.93;21.20
49315;BME280;36672;50.710;12.498;2022-07-18T11:38:50;99224.84;;;31.46;21.51
49315;BME280;36672;50.710;12.498;2022-07-18T11:41:15;99224.75;;;32.18;20.96
49315;BME280;36672;50.710;12.498;2022-07-18T11:43:43;99211.41;;;32.06;20.20
49315;BME280;36672;50.710;12.498;2022-07-18T11:46:09;99216.84;;;32.02;20.43
49315;BME280;36672;50.710;12.498;2022-07-18T11:48:35;99208.59;;;32.06;20.55
49315;BME280;36672;50.710;12.498;2022-07-18T11:51:01;99207.28;;;32.03;20.71
49315;BME280;36672;50.710;12.498;2022-07-18T11:53:26;99206.50;;;32.12;20.80
49315;BME280;36672;50.710;12.498;2022-07-18T11:55:52;99208.31;;;32.25;20.56
49315;BME280;36672;50.710;12.498;2022-07-18T11:58:17;99203.41;;;32.40;20.66
49315;BME280;36672;50.710;12.498;2022-07-18T12:00:43;99203.88;;;32.59;20.06
49315;BME280;36672;50.710;12.498;2022-07-18T12:05:37;99199.41;;;32.93;19.99
49315;BME280;36672;50.710;12.498;2022-07-18T12:11:09;99198.25;;;33.03;19.77
49315;BME280;36672;50.710;12.498;2022-07-18T12:13:42;99195.50;;;32.77;19.78
49315;BME280;36672;50.710;12.498;2022-07-18T12:16:07;99185.94;;;32.51;20.73
49315;BME280;36672;50.710;12.498;2022-07-18T12:18:32;99195.66;;;32.36;20.38
49315;BME280;36672;50.710;12.498;2022-07-18T12:21:10;99189.22;;;32.10;20.28
49315;BME280;36672;50.710;12.498;2022-07-18T12:23:35;99184.13;;;32.03;20.89
49315;BME280;36672;50.710;12.498;2022-07-18T12:26:01;99196.09;;;31.86;20.83
49315;BME280;36672;50.710;12.498;2022-07-18T12:28:26;99183.75;;;31.69;20.95
49315;BME280;36672;50.710;12.498;2022-07-18T12:30:52;99181.53;;;31.58;21.30
49315;BME280;36672;50.710;12.498;2022-07-18T12:33:18;99186.63;;;31.55;20.99
49315;BME280;36672;50.710;12.498;2022-07-18T12:35:43;99180.16;;;31.46;20.90
49315;BME280;36672;50.710;12.498;2022-07-18T12:43:08;99172.09;;;31.04;21.31
49315;BME280;36672;50.710;12.498;2022-07-18T12:45:34;99170.44;;;31.03;21.38
49315;BME280;36672;50.710;12.498;2022-07-18T12:48:00;99167.78;;;30.98;21.50
49315;BME280;36672;50.710;12.498;2022-07-18T12:50:26;99161.72;;;30.96;21.77
49315;BME280;36672;50.710;12.498;2022-07-18T12:52:51;99156.31;;;31.00;21.32
49315;BME280;36672;50.710;12.498;2022-07-18T12:55:16;99156.19;;;31.05;21.15
49315;BME280;36672;50.710;12.498;2022-07-18T12:57:42;99155.78;;;31.20;21.39
49315;BME280;36672;50.710;12.498;2022-07-18T13:00:08;99158.09;;;31.27;21.44
49315;BME280;36672;50.710;12.498;2022-07-18T13:02:33;99151.69;;;31.27;21.04
49315;BME280;36672;50.710;12.498;2022-07-18T13:04:58;99157.91;;;31.23;21.11
49315;BME280;36672;50.710;12.498;2022-07-18T13:07:23;99154.97;;;31.29;21.30
49315;BME280;36672;50.710;12.498;2022-07-18T13:09:49;99164.53;;;31.36;21.32
49315;BME280;36672;50.710;12.498;2022-07-18T13:12:14;99155.69;;;31.43;21.31
49315;BME280;36672;50.710;12.498;2022-07-18T13:14:39;99145.34;;;31.44;21.12
49315;BME280;36672;50.710;12.498;2022-07-18T13:17:04;99149.59;;;31.41;21.50